Time;durP1;ratioP1;P1;durP2;ratioP2;P2;SDS_P1;SDS_P2;PMS_P1;PMS_P2;Temp;Humidity;BMP_temperature;BMP_pressure;BME280_temperature;BME280_humidity;BME280_pressure;Samples;Min_cycle;Max_cycle;Signal;HPM_P1;HPM_P2
2021/12/21 00:01:33;;;;;;;5.07;1.92;;;;;;;;;;8278997;28;20386;-63
2021/12/21 00:05:33;;;;;;;8.38;2.08;;;;;;;;;;8280619;28;20561;-63
2021/12/21 00:09:33;;;;;;;11.30;2.60;;;;;;;;;;8281629;28;20029;-63
2021/12/21 00:21:43;;;;;;;6.60;2.55;;;;;;;;;;8280918;28;20311;-63
2021/12/21 00:25:44;;;;;;;7.85;2.30;;;;;;;;;;8279083;28;20033;-63
2021/12/21 00:29:44;;;;;;;4.38;2.25;;;;;;;;;;8281651;28;20087;-63
2021/12/21 00:33:46;;;;;;;4.68;1.90;;;;;;;;;;8277460;28;20471;-63
2021/12/21 00:37:47;;;;;;;4.63;2.30;;;;;;;;;;8281796;28;20116;-63
2021/12/21 00:41:47;;;;;;;8.20;2.35;;;;;;;;;;8279674;28;20092;-63
2021/12/21 00:45:47;;;;;;;6.47;2.50;;;;;;;;;;8278029;28;20030;-63
2021/12/21 00:49:57;;;;;;;5.47;2.47;;;;;;;;;;8281247;28;20021;-63
2021/12/21 00:53:58;;;;;;;3.35;2.15;;;;;;;;;;8280122;28;20132;-63
2021/12/21 00:57:58;;;;;;;3.05;2.00;;;;;;;;;;8278992;28;20069;-63
2021/12/21 01:01:58;;;;;;;6.65;2.03;;;;;;;;;;8280451;28;20158;-63
2021/12/21 01:06:11;;;;;;;5.18;2.33;;;;;;;;;;8279065;28;20108;-63
2021/12/21 01:18:52;;;;;;;5.97;2.30;;;;;;;;;;8278051;28;20160;-63
2021/12/21 01:27:24;;;;;;;5.95;2.38;;;;;;;;;;8280248;28;20372;-63
2021/12/21 01:31:45;;;;;;;3.80;2.25;;;;;;;;;;8280349;28;20993;-63
2021/12/21 01:35:51;;;;;;;9.77;2.33;;;;;;;;;;8279342;28;20025;-63
2021/12/21 01:52:37;;;;;;;6.18;2.50;;;;;;;;;;8286278;28;20079;-63
2021/12/21 01:56:37;;;;;;;6.93;2.53;;;;;;;;;;8284278;28;20025;-62
2021/12/21 02:00:38;;;;;;;4.78;1.98;;;;;;;;;;8285626;28;20267;-62
2021/12/21 02:04:39;;;;;;;4.85;2.42;;;;;;;;;;8283589;28;20021;-62
2021/12/21 02:08:39;;;;;;;5.28;2.20;;;;;;;;;;8283206;28;20044;-62
2021/12/21 02:12:41;;;;;;;7.75;2.35;;;;;;;;;;8283334;28;20172;-62
2021/12/21 02:16:57;;;;;;;7.93;2.47;;;;;;;;;;8283968;28;20080;-62
2021/12/21 02:21:04;;;;;;;4.95;2.22;;;;;;;;;;8287827;28;20029;-62
2021/12/21 02:25:31;;;;;;;7.68;2.58;;;;;;;;;;8284486;28;20529;-62
2021/12/21 02:29:27;;;;;;;5.18;2.33;;;;;;;;;;8284870;28;21530;-63
2021/12/21 02:33:28;;;;;;;4.97;2.53;;;;;;;;;;8284213;28;20646;-62
2021/12/21 02:37:28;;;;;;;5.70;2.40;;;;;;;;;;8284348;28;20561;-63
2021/12/21 02:41:28;;;;;;;7.55;2.50;;;;;;;;;;8284613;28;20026;-63
2021/12/21 02:45:28;;;;;;;10.75;2.70;;;;;;;;;;8285058;28;20134;-63
2021/12/21 02:49:29;;;;;;;4.03;2.30;;;;;;;;;;8281096;28;20163;-63
2021/12/21 02:53:29;;;;;;;6.18;2.58;;;;;;;;;;8281824;28;20276;-63
2021/12/21 02:57:29;;;;;;;11.00;2.30;;;;;;;;;;8281801;28;20124;-63
2021/12/21 03:01:30;;;;;;;8.35;2.38;;;;;;;;;;8282863;28;20288;-63
2021/12/21 03:05:31;;;;;;;4.30;2.08;;;;;;;;;;8281868;28;20037;-63
2021/12/21 03:09:40;;;;;;;8.15;2.28;;;;;;;;;;8281281;28;20034;-62
2021/12/21 03:14:03;;;;;;;8.50;2.33;;;;;;;;;;8281658;28;20026;-63
2021/12/21 03:18:03;;;;;;;7.28;2.22;;;;;;;;;;8279567;28;20840;-62
2021/12/21 03:22:04;;;;;;;5.25;2.05;;;;;;;;;;8284306;28;20022;-62
2021/12/21 03:26:04;;;;;;;4.05;2.20;;;;;;;;;;8282172;28;20024;-63
2021/12/21 03:30:06;;;;;;;4.68;2.00;;;;;;;;;;8283232;28;20191;-63
2021/12/21 03:34:06;;;;;;;3.17;1.73;;;;;;;;;;8281577;28;20753;-62
2021/12/21 03:38:06;;;;;;;5.07;2.10;;;;;;;;;;8278421;28;20037;-63
2021/12/21 03:42:07;;;;;;;5.78;2.42;;;;;;;;;;8280495;28;20784;-63
2021/12/21 03:46:13;;;;;;;8.00;2.47;;;;;;;;;;8281552;28;20554;-63
2021/12/21 03:50:18;;;;;;;7.10;2.65;;;;;;;;;;8279552;28;20585;-63
2021/12/21 03:54:18;;;;;;;6.40;2.50;;;;;;;;;;8283206;28;20024;-63
2021/12/21 03:58:18;;;;;;;11.00;2.45;;;;;;;;;;8281589;28;20453;-63
2021/12/21 04:02:19;;;;;;;4.00;2.45;;;;;;;;;;8277529;28;20441;-63
2021/12/21 04:06:19;;;;;;;7.32;2.47;;;;;;;;;;8284329;28;20082;-63
2021/12/21 04:10:19;;;;;;;7.10;2.20;;;;;;;;;;8269648;28;20037;-63
2021/12/21 04:14:20;;;;;;;4.38;2.40;;;;;;;;;;8278043;28;20029;-63
2021/12/21 04:18:23;;;;;;;3.15;2.03;;;;;;;;;;8279557;28;20045;-63
2021/12/21 04:22:23;;;;;;;7.90;2.70;;;;;;;;;;8279866;28;20033;-63
2021/12/21 04:26:23;;;;;;;4.05;2.42;;;;;;;;;;8279218;28;20029;-63
2021/12/21 04:30:24;;;;;;;8.15;2.97;;;;;;;;;;8281152;28;20076;-63
2021/12/21 04:34:24;;;;;;;4.35;2.35;;;;;;;;;;8280666;28;20021;-63
2021/12/21 04:38:29;;;;;;;7.95;3.05;;;;;;;;;;8281586;28;20030;-63
2021/12/21 04:42:29;;;;;;;11.25;3.17;;;;;;;;;;8279603;28;20037;-63
2021/12/21 04:46:29;;;;;;;5.32;2.90;;;;;;;;;;8279026;28;20206;-63
2021/12/21 04:50:30;;;;;;;6.60;3.30;;;;;;;;;;8279861;28;20403;-63
2021/12/21 04:54:30;;;;;;;5.65;3.20;;;;;;;;;;8277658;28;20025;-63
2021/12/21 04:58:30;;;;;;;8.30;3.25;;;;;;;;;;8282651;28;20494;-63
2021/12/21 05:02:30;;;;;;;8.90;2.80;;;;;;;;;;8279434;28;20183;-63
2021/12/21 05:06:31;;;;;;;11.23;3.28;;;;;;;;;;8279980;28;20437;-63
2021/12/21 05:10:48;;;;;;;3.85;2.67;;;;;;;;;;8280048;28;20697;-63
2021/12/21 05:14:48;;;;;;;5.93;2.85;;;;;;;;;;8282441;28;20030;-63
2021/12/21 05:18:48;;;;;;;9.98;3.10;;;;;;;;;;8287112;28;20045;-63
2021/12/21 05:22:48;;;;;;;5.25;2.97;;;;;;;;;;8284015;28;20028;-62
2021/12/21 05:26:49;;;;;;;6.60;3.40;;;;;;;;;;8285424;28;20349;-63
2021/12/21 05:30:49;;;;;;;8.35;3.25;;;;;;;;;;8285635;28;20029;-63
2021/12/21 05:34:49;;;;;;;9.15;3.45;;;;;;;;;;8282585;28;20917;-63
2021/12/21 05:38:54;;;;;;;7.00;3.15;;;;;;;;;;8284335;28;20033;-63
2021/12/21 05:42:54;;;;;;;8.05;3.22;;;;;;;;;;8284627;28;20090;-63
2021/12/21 05:46:54;;;;;;;5.95;3.45;;;;;;;;;;8286899;28;20439;-63
2021/12/21 05:50:55;;;;;;;6.80;2.83;;;;;;;;;;8283011;28;20029;-63
2021/12/21 05:54:55;;;;;;;6.97;3.05;;;;;;;;;;8284086;28;20029;-63
2021/12/21 05:58:55;;;;;;;4.93;2.92;;;;;;;;;;8284166;28;20038;-63
2021/12/21 06:02:56;;;;;;;6.20;3.10;;;;;;;;;;8281579;28;20276;-63
2021/12/21 06:06:56;;;;;;;4.35;2.55;;;;;;;;;;8285813;28;20025;-63
2021/12/21 06:10:56;;;;;;;8.02;2.88;;;;;;;;;;8285147;28;20080;-63
2021/12/21 06:27:39;;;;;;;5.50;3.17;;;;;;;;;;8283017;28;20430;-63
2021/12/21 06:31:40;;;;;;;6.95;3.10;;;;;;;;;;8279629;28;20339;-63
2021/12/21 06:35:41;;;;;;;4.70;2.70;;;;;;;;;;8280300;28;20551;-64
2021/12/21 06:39:41;;;;;;;7.75;3.50;;;;;;;;;;8282004;28;20963;-63
2021/12/21 06:43:41;;;;;;;4.70;2.70;;;;;;;;;;8279133;28;20155;-63
2021/12/21 06:52:01;;;;;;;5.63;2.97;;;;;;;;;;8281472;28;20095;-63
2021/12/21 06:56:05;;;;;;;7.47;3.90;;;;;;;;;;8280382;28;20026;-63
2021/12/21 07:00:06;;;;;;;10.75;4.20;;;;;;;;;;8284235;28;20667;-64
2021/12/21 07:04:07;;;;;;;7.40;3.22;;;;;;;;;;8282520;28;21568;-63
2021/12/21 07:08:11;;;;;;;11.10;3.42;;;;;;;;;;8282681;28;20183;-62
2021/12/21 07:20:49;;;;;;;5.35;3.00;;;;;;;;;;8280451;28;20040;-63
2021/12/21 07:24:49;;;;;;;6.30;2.60;;;;;;;;;;8280702;28;20347;-63
2021/12/21 07:28:50;;;;;;;4.30;2.65;;;;;;;;;;8278456;28;20024;-63
2021/12/21 07:32:50;;;;;;;7.07;3.05;;;;;;;;;;8281119;28;20045;-63
2021/12/21 07:36:50;;;;;;;6.43;3.42;;;;;;;;;;8281718;28;20271;-63
2021/12/21 07:40:50;;;;;;;6.72;3.20;;;;;;;;;;8280895;28;20041;-63
2021/12/21 07:44:50;;;;;;;6.22;3.55;;;;;;;;;;8282300;28;20032;-63
2021/12/21 07:48:51;;;;;;;9.82;3.50;;;;;;;;;;8279456;28;20160;-63
2021/12/21 07:52:54;;;;;;;6.57;3.40;;;;;;;;;;8284484;28;20492;-63
2021/12/21 07:56:54;;;;;;;5.72;3.33;;;;;;;;;;8282681;28;20070;-63
2021/12/21 08:00:55;;;;;;;6.65;2.75;;;;;;;;;;8278993;28;20510;-63
2021/12/21 08:04:55;;;;;;;5.55;3.22;;;;;;;;;;8279375;28;21290;-63
2021/12/21 08:08:55;;;;;;;9.73;3.65;;;;;;;;;;8279783;28;20036;-63
2021/12/21 08:12:56;;;;;;;7.85;3.80;;;;;;;;;;8291298;28;20328;-63
2021/12/21 08:16:56;;;;;;;5.30;2.65;;;;;;;;;;8289554;28;20312;-63
2021/12/21 08:20:57;;;;;;;6.93;2.92;;;;;;;;;;8288334;28;20032;-63
2021/12/21 08:24:57;;;;;;;7.45;3.75;;;;;;;;;;8284560;28;20021;-63
2021/12/21 08:28:57;;;;;;;7.85;2.92;;;;;;;;;;8285904;28;20075;-63
2021/12/21 08:32:57;;;;;;;8.63;3.20;;;;;;;;;;8287246;28;20062;-63
2021/12/21 08:36:58;;;;;;;9.40;3.25;;;;;;;;;;8284733;28;20025;-63
2021/12/21 08:40:59;;;;;;;7.53;3.63;;;;;;;;;;8282504;28;20061;-63
2021/12/21 08:45:01;;;;;;;6.28;3.38;;;;;;;;;;8284938;28;20467;-63
2021/12/21 08:49:01;;;;;;;8.48;3.40;;;;;;;;;;8287026;28;20653;-65
2021/12/21 08:53:02;;;;;;;4.90;3.25;;;;;;;;;;8286872;28;20140;-63
2021/12/21 08:57:02;;;;;;;10.77;3.70;;;;;;;;;;8283830;28;20553;-63
2021/12/21 09:01:03;;;;;;;6.30;3.30;;;;;;;;;;8273940;28;20034;-64
2021/12/21 09:05:11;;;;;;;7.53;4.07;;;;;;;;;;8282312;28;21056;-63
2021/12/21 09:09:11;;;;;;;11.70;4.03;;;;;;;;;;8284894;28;20599;-63
2021/12/21 09:13:12;;;;;;;9.27;3.80;;;;;;;;;;8284723;28;20032;-63
2021/12/21 09:17:12;;;;;;;6.90;3.83;;;;;;;;;;8283885;28;20029;-63
2021/12/21 09:21:12;;;;;;;7.00;3.60;;;;;;;;;;8282023;28;20546;-63
2021/12/21 09:25:12;;;;;;;7.93;3.22;;;;;;;;;;8285351;28;20029;-63
2021/12/21 09:29:13;;;;;;;6.75;3.42;;;;;;;;;;8282453;28;20371;-63
2021/12/21 09:33:13;;;;;;;9.52;3.70;;;;;;;;;;8281806;28;20292;-64
2021/12/21 09:37:20;;;;;;;7.20;3.63;;;;;;;;;;8283585;28;20033;-64
2021/12/21 09:41:20;;;;;;;6.63;3.70;;;;;;;;;;8283043;28;20026;-63
2021/12/21 09:45:20;;;;;;;8.18;3.83;;;;;;;;;;8281620;28;20462;-63
2021/12/21 09:49:20;;;;;;;8.48;4.28;;;;;;;;;;8282569;28;20254;-63
2021/12/21 09:53:21;;;;;;;9.00;3.65;;;;;;;;;;8282513;28;20256;-63
2021/12/21 09:57:22;;;;;;;6.43;3.33;;;;;;;;;;8281575;28;20501;-63
2021/12/21 10:01:22;;;;;;;8.35;3.35;;;;;;;;;;8283656;28;20056;-64
2021/12/21 10:05:24;;;;;;;10.30;3.60;;;;;;;;;;8290185;28;20897;-63
2021/12/21 10:09:32;;;;;;;6.38;3.30;;;;;;;;;;8287978;28;20044;-63
2021/12/21 10:13:36;;;;;;;7.55;3.50;;;;;;;;;;8289354;28;20423;-63
2021/12/21 10:17:37;;;;;;;6.00;3.53;;;;;;;;;;8287998;28;20582;-63
2021/12/21 10:21:43;;;;;;;10.27;3.55;;;;;;;;;;8290112;28;20415;-63
2021/12/21 10:25:44;;;;;;;9.57;3.33;;;;;;;;;;8288567;28;20086;-63
2021/12/21 10:29:45;;;;;;;7.95;3.78;;;;;;;;;;8291007;28;20362;-63
2021/12/21 10:33:45;;;;;;;9.88;4.10;;;;;;;;;;8288965;28;20036;-63
2021/12/21 10:37:49;;;;;;;8.15;3.67;;;;;;;;;;8290006;28;20461;-64
2021/12/21 10:41:51;;;;;;;9.43;4.43;;;;;;;;;;8292398;28;20021;-64
2021/12/21 10:45:53;;;;;;;7.88;4.18;;;;;;;;;;8287735;28;20286;-64
2021/12/21 10:49:53;;;;;;;9.13;3.97;;;;;;;;;;8288915;28;20025;-64
2021/12/21 10:53:53;;;;;;;7.82;4.35;;;;;;;;;;8286178;28;20531;-64
2021/12/21 10:58:03;;;;;;;5.47;3.33;;;;;;;;;;8285613;28;20075;-64
2021/12/21 11:02:14;;;;;;;5.88;3.70;;;;;;;;;;8286028;28;20624;-64
2021/12/21 11:06:16;;;;;;;7.78;3.72;;;;;;;;;;8284917;28;20726;-63
2021/12/21 11:10:20;;;;;;;8.05;3.97;;;;;;;;;;8288951;28;20033;-64
2021/12/21 11:14:20;;;;;;;11.93;3.97;;;;;;;;;;8288439;28;20354;-63
2021/12/21 11:18:22;;;;;;;8.80;3.37;;;;;;;;;;8285178;28;20514;-64
2021/12/21 11:22:23;;;;;;;5.40;3.35;;;;;;;;;;8275954;28;20264;-63
2021/12/21 11:26:26;;;;;;;7.40;3.60;;;;;;;;;;8287323;28;20037;-64
2021/12/21 11:30:26;;;;;;;5.60;3.58;;;;;;;;;;8274983;28;20034;-64
2021/12/21 11:34:32;;;;;;;5.88;3.38;;;;;;;;;;8284383;28;20184;-64
2021/12/21 11:38:32;;;;;;;6.00;3.67;;;;;;;;;;8285797;28;20030;-64
2021/12/21 11:42:44;;;;;;;6.38;3.40;;;;;;;;;;8285656;28;20036;-64
2021/12/21 11:46:50;;;;;;;6.07;3.10;;;;;;;;;;8285016;28;20503;-64
2021/12/21 11:50:51;;;;;;;8.73;3.15;;;;;;;;;;8282610;28;20919;-64
2021/12/21 11:54:52;;;;;;;7.40;3.47;;;;;;;;;;8285694;28;20025;-64
2021/12/21 11:58:55;;;;;;;6.18;3.47;;;;;;;;;;8280668;28;20284;-64
2021/12/21 12:03:07;;;;;;;6.63;3.70;;;;;;;;;;8283041;28;20038;-64
2021/12/21 12:07:15;;;;;;;8.57;3.88;;;;;;;;;;8285960;28;20038;-64
2021/12/21 12:11:23;;;;;;;11.23;4.22;;;;;;;;;;8281688;28;20048;-64
2021/12/21 12:15:23;;;;;;;8.50;3.90;;;;;;;;;;8282683;28;20033;-64
2021/12/21 12:19:29;;;;;;;6.05;3.13;;;;;;;;;;8284868;28;20029;-64
2021/12/21 12:23:29;;;;;;;9.70;3.70;;;;;;;;;;8284584;28;20025;-64
2021/12/21 12:27:30;;;;;;;8.25;3.85;;;;;;;;;;8284897;28;20039;-64
2021/12/21 12:31:32;;;;;;;7.97;3.67;;;;;;;;;;8283268;28;20523;-64
2021/12/21 12:35:33;;;;;;;9.15;4.57;;;;;;;;;;8283093;28;20037;-64
2021/12/21 12:39:41;;;;;;;9.10;4.50;;;;;;;;;;8290162;28;20033;-64
2021/12/21 12:43:44;;;;;;;10.65;4.43;;;;;;;;;;8284197;28;20053;-64
2021/12/21 12:47:45;;;;;;;7.68;4.20;;;;;;;;;;8284374;28;20038;-64
2021/12/21 12:51:46;;;;;;;8.43;4.10;;;;;;;;;;8286472;28;20142;-64
2021/12/21 12:55:58;;;;;;;6.60;4.15;;;;;;;;;;8281619;28;20037;-65
2021/12/21 13:00:07;;;;;;;9.35;4.03;;;;;;;;;;8275190;28;20028;-64
2021/12/21 13:04:09;;;;;;;10.02;4.18;;;;;;;;;;8287875;28;20037;-64
2021/12/21 13:08:09;;;;;;;11.45;4.30;;;;;;;;;;8283318;28;20036;-64
2021/12/21 13:12:11;;;;;;;9.82;4.63;;;;;;;;;;8284075;28;20017;-64
2021/12/21 13:16:16;;;;;;;7.25;4.18;;;;;;;;;;8281631;28;20037;-64
2021/12/21 13:20:25;;;;;;;10.82;4.45;;;;;;;;;;8284511;28;20398;-64
2021/12/21 13:24:33;;;;;;;10.27;4.57;;;;;;;;;;8287756;28;20491;-64
2021/12/21 13:28:43;;;;;;;8.07;4.70;;;;;;;;;;8286667;28;20641;-64
2021/12/21 13:32:44;;;;;;;7.57;4.03;;;;;;;;;;8279729;28;20471;-64
2021/12/21 13:36:45;;;;;;;9.87;4.43;;;;;;;;;;8287073;28;20072;-63
2021/12/21 13:41:03;;;;;;;6.60;4.22;;;;;;;;;;8285132;28;20659;-63
2021/12/21 13:45:04;;;;;;;8.77;4.45;;;;;;;;;;8284106;28;20020;-64
2021/12/21 13:49:04;;;;;;;9.18;4.20;;;;;;;;;;8285189;28;20025;-62
2021/12/21 13:53:05;;;;;;;10.05;4.25;;;;;;;;;;8287306;28;20474;-63
2021/12/21 13:57:05;;;;;;;8.77;4.25;;;;;;;;;;8285973;28;20625;-63
2021/12/21 14:01:06;;;;;;;9.37;3.63;;;;;;;;;;8284814;28;20110;-62
2021/12/21 14:05:07;;;;;;;9.23;4.05;;;;;;;;;;8282254;28;20961;-63
2021/12/21 14:09:09;;;;;;;7.13;3.90;;;;;;;;;;8283791;28;20139;-63
2021/12/21 14:13:09;;;;;;;7.03;3.40;;;;;;;;;;8284705;28;20080;-63
2021/12/21 14:17:12;;;;;;;7.63;3.53;;;;;;;;;;8282217;28;20034;-63
2021/12/21 14:21:14;;;;;;;9.05;4.00;;;;;;;;;;8283335;28;20021;-63
2021/12/21 14:25:16;;;;;;;7.63;3.50;;;;;;;;;;8283054;28;20068;-63
2021/12/21 14:29:19;;;;;;;6.80;3.70;;;;;;;;;;8283378;28;20123;-63
2021/12/21 14:33:23;;;;;;;7.22;3.85;;;;;;;;;;8282317;28;20049;-63
2021/12/21 14:37:24;;;;;;;9.50;4.18;;;;;;;;;;8284661;28;20540;-63
2021/12/21 14:41:32;;;;;;;7.10;3.88;;;;;;;;;;8285951;28;20026;-63
2021/12/21 14:45:32;;;;;;;9.45;3.88;;;;;;;;;;8283326;28;20510;-64
2021/12/21 14:49:34;;;;;;;6.88;3.75;;;;;;;;;;8281946;28;20030;-63
2021/12/21 14:53:44;;;;;;;7.82;4.47;;;;;;;;;;8282662;28;20060;-63
2021/12/21 14:57:58;;;;;;;7.05;4.00;;;;;;;;;;8283775;28;20026;-63
2021/12/21 15:02:04;;;;;;;9.05;3.92;;;;;;;;;;8283312;28;20038;-63
2021/12/21 15:06:05;;;;;;;12.00;4.03;;;;;;;;;;8285700;28;20017;-63
2021/12/21 15:10:06;;;;;;;8.82;3.95;;;;;;;;;;8282941;28;20056;-63
2021/12/21 15:14:06;;;;;;;9.43;3.65;;;;;;;;;;8284599;28;20057;-63
2021/12/21 15:18:07;;;;;;;6.35;3.70;;;;;;;;;;8285570;28;20038;-63
2021/12/21 15:22:08;;;;;;;9.00;4.03;;;;;;;;;;8283405;28;20025;-63
2021/12/21 15:26:08;;;;;;;8.75;3.92;;;;;;;;;;8281617;28;20044;-63
2021/12/21 15:30:10;;;;;;;5.55;3.50;;;;;;;;;;8282328;28;20025;-63
2021/12/21 15:34:10;;;;;;;8.02;4.25;;;;;;;;;;8282597;28;20590;-63
2021/12/21 15:38:11;;;;;;;6.53;4.38;;;;;;;;;;8280671;28;20192;-63
2021/12/21 15:42:16;;;;;;;6.28;4.25;;;;;;;;;;8280827;28;20068;-63
2021/12/21 15:46:19;;;;;;;7.97;4.13;;;;;;;;;;8283441;28;20521;-63
2021/12/21 15:50:19;;;;;;;5.78;4.30;;;;;;;;;;8282806;28;20057;-63
2021/12/21 15:54:19;;;;;;;8.70;3.90;;;;;;;;;;8279280;28;20391;-63
2021/12/21 15:58:20;;;;;;;5.40;3.58;;;;;;;;;;8281858;28;20806;-63
2021/12/21 16:02:20;;;;;;;7.18;3.88;;;;;;;;;;8284561;28;20036;-63
2021/12/21 16:06:20;;;;;;;7.80;4.00;;;;;;;;;;8280044;28;20021;-63
2021/12/21 16:10:21;;;;;;;10.85;4.00;;;;;;;;;;8279412;28;20030;-63
2021/12/21 16:14:21;;;;;;;6.40;4.10;;;;;;;;;;8279376;28;20056;-63
2021/12/21 16:18:21;;;;;;;9.40;4.80;;;;;;;;;;8281893;28;20724;-63
2021/12/21 16:22:22;;;;;;;7.47;4.13;;;;;;;;;;8281402;28;20258;-63
2021/12/21 16:26:22;;;;;;;7.53;4.15;;;;;;;;;;8282432;28;20017;-63
2021/12/21 16:30:42;;;;;;;6.67;4.30;;;;;;;;;;8283508;28;20097;-64
2021/12/21 16:34:43;;;;;;;6.35;4.05;;;;;;;;;;8278812;28;20792;-64
2021/12/21 16:38:44;;;;;;;6.90;3.92;;;;;;;;;;8282235;28;20542;-64
2021/12/21 16:42:44;;;;;;;11.68;4.78;;;;;;;;;;8267377;28;20076;-64
2021/12/21 16:46:44;;;;;;;6.72;4.05;;;;;;;;;;8281019;28;20338;-64
2021/12/21 16:50:45;;;;;;;7.75;4.07;;;;;;;;;;8279714;28;20017;-64
2021/12/21 16:54:45;;;;;;;6.63;3.80;;;;;;;;;;8276681;28;20249;-64
2021/12/21 16:58:47;;;;;;;7.75;3.90;;;;;;;;;;8278003;28;20026;-64
2021/12/21 17:02:47;;;;;;;7.10;3.83;;;;;;;;;;8279746;28;20095;-64
2021/12/21 17:06:47;;;;;;;10.95;4.45;;;;;;;;;;8280379;28;20542;-63
2021/12/21 17:10:49;;;;;;;7.40;3.45;;;;;;;;;;8279773;28;20055;-63
2021/12/21 17:14:49;;;;;;;4.75;3.42;;;;;;;;;;8283382;28;20296;-63
2021/12/21 17:18:49;;;;;;;8.63;4.00;;;;;;;;;;8286756;28;20358;-63
2021/12/21 17:22:49;;;;;;;5.88;3.90;;;;;;;;;;8283835;28;20025;-63
2021/12/21 17:26:50;;;;;;;14.52;4.35;;;;;;;;;;8284729;28;20383;-63
2021/12/21 17:30:50;;;;;;;8.27;4.70;;;;;;;;;;8286306;28;20036;-63
2021/12/21 17:34:51;;;;;;;10.57;4.22;;;;;;;;;;8285576;28;20051;-63
2021/12/21 17:38:51;;;;;;;10.13;4.55;;;;;;;;;;8287787;28;20118;-63
2021/12/21 17:42:51;;;;;;;8.68;4.28;;;;;;;;;;8284669;28;20040;-63
2021/12/21 17:46:52;;;;;;;6.67;3.40;;;;;;;;;;8284300;28;20458;-63
2021/12/21 17:50:52;;;;;;;7.88;4.03;;;;;;;;;;8287560;28;20255;-63
2021/12/21 17:54:54;;;;;;;6.82;3.72;;;;;;;;;;8285656;28;20021;-63
2021/12/21 17:58:54;;;;;;;8.27;4.38;;;;;;;;;;8283745;28;20037;-63
2021/12/21 18:02:55;;;;;;;7.35;3.85;;;;;;;;;;8285767;28;20041;-63
2021/12/21 18:06:55;;;;;;;5.72;4.00;;;;;;;;;;8284606;28;21199;-63
2021/12/21 18:10:55;;;;;;;9.35;4.03;;;;;;;;;;8283673;28;20033;-63
2021/12/21 18:14:55;;;;;;;7.38;4.25;;;;;;;;;;8285230;28;20033;-63
2021/12/21 18:18:55;;;;;;;8.50;4.32;;;;;;;;;;8287408;28;21400;-63
2021/12/21 18:22:57;;;;;;;6.55;3.95;;;;;;;;;;8286955;28;21575;-63
2021/12/21 18:26:57;;;;;;;6.30;3.85;;;;;;;;;;8285076;28;20029;-63
2021/12/21 18:30:57;;;;;;;7.93;3.78;;;;;;;;;;8286487;28;20077;-63
2021/12/21 18:34:58;;;;;;;5.25;3.50;;;;;;;;;;8283643;28;20389;-63
2021/12/21 18:38:58;;;;;;;5.43;3.70;;;;;;;;;;8286295;28;20020;-63
2021/12/21 18:43:00;;;;;;;4.65;3.20;;;;;;;;;;8282559;28;20167;-63
2021/12/21 18:47:01;;;;;;;5.43;3.33;;;;;;;;;;8283562;28;20681;-63
2021/12/21 18:51:01;;;;;;;7.75;3.67;;;;;;;;;;8284743;28;20120;-63
2021/12/21 18:55:02;;;;;;;8.18;4.10;;;;;;;;;;8283867;28;20057;-63
2021/12/21 18:59:04;;;;;;;8.48;4.20;;;;;;;;;;8282670;28;20233;-63
2021/12/21 19:03:09;;;;;;;7.60;3.83;;;;;;;;;;8284940;28;20140;-63
2021/12/21 19:07:09;;;;;;;12.45;4.07;;;;;;;;;;8284460;28;20021;-63
2021/12/21 19:11:09;;;;;;;9.82;4.03;;;;;;;;;;8280667;28;20032;-63
2021/12/21 19:15:09;;;;;;;5.78;3.70;;;;;;;;;;8289300;28;20037;-64
2021/12/21 19:19:10;;;;;;;6.97;3.63;;;;;;;;;;8287270;28;20104;-63
2021/12/21 19:23:12;;;;;;;7.40;3.78;;;;;;;;;;8283478;28;20453;-63
2021/12/21 19:27:12;;;;;;;5.82;3.55;;;;;;;;;;8285613;28;20025;-63
2021/12/21 19:31:12;;;;;;;5.35;3.47;;;;;;;;;;8281549;28;20574;-63
2021/12/21 19:35:13;;;;;;;6.47;3.50;;;;;;;;;;8278960;28;20060;-63
2021/12/21 19:39:13;;;;;;;5.43;3.42;;;;;;;;;;8282520;28;20032;-63
2021/12/21 19:43:14;;;;;;;5.22;3.47;;;;;;;;;;8282928;28;20108;-63
2021/12/21 19:47:14;;;;;;;6.22;3.40;;;;;;;;;;8279581;28;20269;-63
2021/12/21 19:51:15;;;;;;;6.38;3.53;;;;;;;;;;8281361;28;20034;-63
2021/12/21 19:55:15;;;;;;;6.18;3.88;;;;;;;;;;8280993;28;20426;-63
2021/12/21 19:59:15;;;;;;;9.15;4.40;;;;;;;;;;8281197;28;20039;-63
2021/12/21 20:03:15;;;;;;;7.27;4.17;;;;;;;;;;8279322;28;20057;-63
2021/12/21 20:07:16;;;;;;;9.05;4.35;;;;;;;;;;8278959;28;20272;-63
2021/12/21 20:11:21;;;;;;;8.18;4.43;;;;;;;;;;8281135;28;20029;-63
2021/12/21 20:15:28;;;;;;;7.30;4.18;;;;;;;;;;8280369;28;20203;-63
2021/12/21 20:19:31;;;;;;;8.07;4.35;;;;;;;;;;8285916;28;20028;-63
2021/12/21 20:23:31;;;;;;;9.20;4.20;;;;;;;;;;8287462;28;20596;-63
2021/12/21 20:27:31;;;;;;;8.43;4.57;;;;;;;;;;8287448;28;20025;-63
2021/12/21 20:31:31;;;;;;;6.95;4.10;;;;;;;;;;8286273;28;20709;-64
2021/12/21 20:35:31;;;;;;;6.53;4.30;;;;;;;;;;8290442;28;20429;-63
2021/12/21 20:39:32;;;;;;;9.20;4.87;;;;;;;;;;8286188;28;20075;-63
2021/12/21 20:43:32;;;;;;;9.03;4.60;;;;;;;;;;8284995;28;20272;-63
2021/12/21 20:47:32;;;;;;;7.47;3.78;;;;;;;;;;8280115;28;20272;-63
2021/12/21 20:51:32;;;;;;;11.63;4.65;;;;;;;;;;8278621;28;20021;-63
2021/12/21 20:55:34;;;;;;;6.78;3.88;;;;;;;;;;8278301;28;20290;-63
2021/12/21 20:59:34;;;;;;;9.75;4.70;;;;;;;;;;8277679;28;20296;-63
2021/12/21 21:03:35;;;;;;;9.32;5.00;;;;;;;;;;8280414;28;20053;-63
2021/12/21 21:07:35;;;;;;;7.07;4.40;;;;;;;;;;8277697;28;20273;-63
2021/12/21 21:11:35;;;;;;;9.10;4.50;;;;;;;;;;8278091;28;20067;-63
2021/12/21 21:15:35;;;;;;;7.15;4.47;;;;;;;;;;8276234;28;20033;-63
2021/12/21 21:19:37;;;;;;;10.50;4.90;;;;;;;;;;8280818;28;20299;-63
2021/12/21 21:23:40;;;;;;;6.93;4.80;;;;;;;;;;8279280;28;20854;-63
2021/12/21 21:27:42;;;;;;;9.32;5.25;;;;;;;;;;8277497;28;20098;-63
2021/12/21 21:31:42;;;;;;;11.40;5.25;;;;;;;;;;8279406;28;20820;-63
2021/12/21 21:35:45;;;;;;;8.85;5.03;;;;;;;;;;8277901;28;20030;-63
2021/12/21 21:39:46;;;;;;;9.43;4.85;;;;;;;;;;8280811;28;20341;-63
2021/12/21 21:43:46;;;;;;;10.25;5.15;;;;;;;;;;8277075;28;20321;-63
2021/12/21 21:47:46;;;;;;;9.55;4.75;;;;;;;;;;8278341;28;20061;-63
2021/12/21 21:51:47;;;;;;;8.65;5.25;;;;;;;;;;8281046;28;20485;-63
2021/12/21 21:55:47;;;;;;;12.88;5.32;;;;;;;;;;8275090;28;20056;-63
2021/12/21 21:59:47;;;;;;;9.88;5.30;;;;;;;;;;8286347;28;20276;-63
2021/12/21 22:03:47;;;;;;;8.52;4.53;;;;;;;;;;8283066;28;20025;-63
2021/12/21 22:07:48;;;;;;;8.40;4.90;;;;;;;;;;8284934;28;20029;-63
2021/12/21 22:11:48;;;;;;;8.95;4.90;;;;;;;;;;8282673;28;20026;-63
2021/12/21 22:15:48;;;;;;;7.30;4.22;;;;;;;;;;8284936;28;20040;-63
2021/12/21 22:19:48;;;;;;;8.40;4.15;;;;;;;;;;8282420;28;20380;-63
2021/12/21 22:23:49;;;;;;;7.38;4.50;;;;;;;;;;8284041;28;20477;-63
2021/12/21 22:27:49;;;;;;;6.85;4.18;;;;;;;;;;8284332;28;20025;-63
2021/12/21 22:31:49;;;;;;;5.20;3.47;;;;;;;;;;8285668;28;20037;-63
2021/12/21 22:35:49;;;;;;;6.80;4.10;;;;;;;;;;8282872;28;20025;-63
2021/12/21 22:39:50;;;;;;;10.15;4.40;;;;;;;;;;8283930;28;20022;-63
2021/12/21 22:43:51;;;;;;;7.38;4.43;;;;;;;;;;8285064;28;20578;-63
2021/12/21 22:47:51;;;;;;;7.15;3.92;;;;;;;;;;8282011;28;20756;-63
2021/12/21 22:51:52;;;;;;;7.72;3.85;;;;;;;;;;8283171;28;20107;-63
2021/12/21 22:55:52;;;;;;;6.90;3.80;;;;;;;;;;8281065;28;20272;-63
2021/12/21 22:59:52;;;;;;;11.05;4.40;;;;;;;;;;8283549;28;20581;-63
2021/12/21 23:03:53;;;;;;;6.05;4.07;;;;;;;;;;8280987;28;20061;-63
2021/12/21 23:07:53;;;;;;;9.73;5.20;;;;;;;;;;8281892;28;20572;-63
2021/12/21 23:11:53;;;;;;;8.38;5.20;;;;;;;;;;8279734;28;20841;-63
2021/12/21 23:15:55;;;;;;;9.25;4.60;;;;;;;;;;8281487;28;20047;-63
2021/12/21 23:19:55;;;;;;;8.88;4.70;;;;;;;;;;8279752;28;20046;-62
2021/12/21 23:23:55;;;;;;;10.90;5.03;;;;;;;;;;8278744;28;20025;-62
2021/12/21 23:27:56;;;;;;;9.23;4.78;;;;;;;;;;8282878;28;20040;-63
2021/12/21 23:31:56;;;;;;;7.57;4.38;;;;;;;;;;8281040;28;20285;-63
2021/12/21 23:35:56;;;;;;;10.30;4.43;;;;;;;;;;8283180;28;20136;-64
2021/12/21 23:39:56;;;;;;;6.45;4.18;;;;;;;;;;8283509;28;20751;-63
2021/12/21 23:43:57;;;;;;;7.53;4.13;;;;;;;;;;8282271;28;21373;-63
2021/12/21 23:47:57;;;;;;;6.20;4.25;;;;;;;;;;8268080;28;20037;-63
2021/12/21 23:51:57;;;;;;;6.63;3.88;;;;;;;;;;8284481;28;20013;-62
2021/12/21 23:55:58;;;;;;;8.32;3.72;;;;;;;;;;8277758;28;20678;-63
2021/12/21 23:59:58;;;;;;;7.57;4.20;;;;;;;;;;8279934;28;20418;-63
